Time;durP1;ratioP1;P1;durP2;ratioP2;P2;SDS_P1;SDS_P2;PMS_P1;PMS_P2;Temp;Humidity;BMP_temperature;BMP_pressure;BME280_temperature;BME280_humidity;BME280_pressure;Samples;Min_cycle;Max_cycle;Signal;HPM_P1;HPM_P2
2022/11/04 00:01:42;;;;;;;6.32;4.72;;;10.60;83.50;;;;;;5048150;28;20017;-58
2022/11/04 00:04:09;;;;;;;7.90;5.30;;;10.60;83.50;;;;;;5051097;28;20509;-58
2022/11/04 00:06:36;;;;;;;7.57;5.38;;;10.60;83.40;;;;;;5051949;28;20458;-57
2022/11/04 00:09:03;;;;;;;8.18;5.57;;;10.60;83.40;;;;;;5054322;28;20093;-57
2022/11/04 00:14:14;;;;;;;7.90;5.72;;;10.60;83.20;;;;;;5051161;28;20043;-57
2022/11/04 00:19:24;;;;;;;6.72;4.75;;;10.60;83.20;;;;;;5051779;28;20434;-59
2022/11/04 00:29:53;;;;;;;7.35;4.90;;;10.70;83.20;;;;;;5058657;28;20035;-57
2022/11/04 00:35:04;;;;;;;6.68;4.97;;;10.80;83.00;;;;;;5044363;28;20032;-57
2022/11/04 00:37:30;;;;;;;7.82;4.80;;;10.90;82.80;;;;;;5055634;28;20369;-57
2022/11/04 00:39:56;;;;;;;5.63;4.20;;;10.90;82.60;;;;;;5054839;28;20055;-59
2022/11/04 00:42:21;;;;;;;7.05;4.82;;;11.00;82.60;;;;;;5054714;28;20069;-58
2022/11/04 00:44:47;;;;;;;8.50;5.68;;;11.00;82.40;;;;;;5050686;28;20516;-57
2022/11/04 00:47:12;;;;;;;7.82;5.28;;;11.00;82.40;;;;;;5047960;28;20064;-57
2022/11/04 00:49:38;;;;;;;7.65;5.07;;;11.00;82.40;;;;;;5051752;28;20332;-57
2022/11/04 00:52:04;;;;;;;11.68;7.90;;;11.10;82.40;;;;;;5047654;28;20029;-57
2022/11/04 00:54:29;;;;;;;8.20;6.20;;;11.10;82.10;;;;;;5044217;28;20064;-56
2022/11/04 00:56:55;;;;;;;8.10;5.80;;;11.10;82.10;;;;;;5062372;28;20033;-57
2022/11/04 00:59:20;;;;;;;7.88;5.30;;;11.00;82.20;;;;;;5050989;28;20419;-56
2022/11/04 01:01:46;;;;;;;7.70;5.70;;;11.00;82.40;;;;;;5048872;28;20032;-58
2022/11/04 01:04:12;;;;;;;8.57;5.63;;;11.10;82.40;;;;;;5044674;28;20039;-58
2022/11/04 01:06:38;;;;;;;9.98;6.78;;;11.10;82.20;;;;;;5046594;28;20496;-57
2022/11/04 01:09:09;;;;;;;11.23;6.95;;;11.10;82.10;;;;;;5046882;28;20025;-57
2022/11/04 01:11:35;;;;;;;8.85;6.38;;;11.00;82.00;;;;;;5050197;28;22026;-57
2022/11/04 01:14:01;;;;;;;10.70;7.25;;;11.00;82.00;;;;;;5054161;28;20033;-58
2022/11/04 01:16:27;;;;;;;11.27;7.82;;;11.00;82.10;;;;;;5050204;28;20033;-58
2022/11/04 01:18:53;;;;;;;10.45;8.00;;;11.00;82.10;;;;;;5045795;28;20075;-58
2022/11/04 01:21:19;;;;;;;9.80;6.78;;;10.90;82.00;;;;;;5047069;28;20448;-57
2022/11/04 01:23:45;;;;;;;9.93;7.38;;;10.90;82.10;;;;;;5051982;28;20082;-58
2022/11/04 01:26:17;;;;;;;12.73;8.68;;;10.90;82.30;;;;;;5049864;28;20026;-58
2022/11/04 01:28:43;;;;;;;9.80;6.80;;;10.90;82.30;;;;;;5043620;28;20412;-57
2022/11/04 01:31:11;;;;;;;8.57;6.68;;;10.90;82.40;;;;;;5053008;28;20155;-58
2022/11/04 01:33:37;;;;;;;10.82;7.85;;;10.90;82.20;;;;;;5042215;28;20045;-57
2022/11/04 01:36:05;;;;;;;10.80;8.00;;;10.90;82.10;;;;;;5044951;28;20458;-58
2022/11/04 01:38:31;;;;;;;10.52;7.00;;;11.00;82.10;;;;;;5051082;28;20061;-57
2022/11/04 01:40:57;;;;;;;10.32;7.75;;;11.00;81.90;;;;;;5053837;28;20032;-57
2022/11/04 01:43:41;;;;;;;9.20;7.72;;;11.00;81.60;;;;;;5055594;28;20028;-57
2022/11/04 01:46:10;;;;;;;11.15;7.68;;;11.00;81.60;;;;;;5051330;28;20072;-58
2022/11/04 01:48:36;;;;;;;10.60;7.75;;;11.00;81.60;;;;;;5046515;28;20025;-58
2022/11/04 01:51:03;;;;;;;9.57;7.07;;;11.00;81.60;;;;;;5056358;28;20039;-57
2022/11/04 01:53:36;;;;;;;10.65;7.55;;;10.90;81.60;;;;;;5052571;28;20096;-58
2022/11/04 01:56:11;;;;;;;8.93;6.88;;;11.00;81.60;;;;;;5040795;28;20021;-57
2022/11/04 01:58:41;;;;;;;10.07;6.78;;;11.00;81.50;;;;;;5050403;28;20025;-57
2022/11/04 02:01:10;;;;;;;9.07;6.03;;;11.00;81.60;;;;;;5046282;28;20112;-57
2022/11/04 02:03:42;;;;;;;8.65;6.18;;;10.90;81.60;;;;;;5052316;28;20025;-57
2022/11/04 02:06:09;;;;;;;10.90;6.82;;;10.90;81.60;;;;;;5042061;28;20164;-58
2022/11/04 02:08:37;;;;;;;8.48;5.38;;;10.90;81.50;;;;;;5049112;28;20442;-57
2022/11/04 02:11:03;;;;;;;9.77;5.47;;;11.00;81.50;;;;;;5049595;28;20713;-57
2022/11/04 02:13:34;;;;;;;8.15;5.68;;;11.00;81.40;;;;;;5053385;28;20476;-58
2022/11/04 02:16:14;;;;;;;6.85;5.13;;;11.00;81.30;;;;;;5046276;28;20166;-57
2022/11/04 02:19:05;;;;;;;9.38;5.68;;;11.00;81.10;;;;;;5049620;28;20045;-57
2022/11/04 02:22:09;;;;;;;7.40;5.10;;;11.00;81.10;;;;;;5050824;28;20049;-58
2022/11/04 02:24:46;;;;;;;7.70;5.22;;;11.00;81.10;;;;;;5046100;28;20102;-58
2022/11/04 02:27:38;;;;;;;8.35;5.30;;;11.00;81.00;;;;;;5047353;28;20099;-57
2022/11/04 02:30:14;;;;;;;8.10;5.55;;;11.00;80.90;;;;;;5054631;28;20029;-57
2022/11/04 02:33:24;;;;;;;7.95;5.70;;;11.00;80.90;;;;;;5053803;28;20048;-57
2022/11/04 02:36:22;;;;;;;7.68;5.03;;;11.00;80.80;;;;;;5026257;28;20040;-58
2022/11/04 02:38:56;;;;;;;8.05;5.72;;;10.90;80.90;;;;;;5053463;28;20044;-57
2022/11/04 02:41:39;;;;;;;7.22;5.22;;;10.90;81.00;;;;;;5053878;28;20136;-58
2022/11/04 02:44:26;;;;;;;7.22;5.07;;;10.90;81.20;;;;;;5057132;28;20079;-58
2022/11/04 02:46:59;;;;;;;7.57;5.72;;;10.90;81.10;;;;;;5051759;28;20484;-57
2022/11/04 02:49:42;;;;;;;7.38;5.07;;;10.90;81.30;;;;;;5063400;28;20051;-58
2022/11/04 02:52:13;;;;;;;6.07;4.75;;;10.90;81.20;;;;;;5051783;28;20070;-58
2022/11/04 02:54:50;;;;;;;8.13;4.90;;;10.80;81.40;;;;;;5045083;28;20113;-58
2022/11/04 02:57:20;;;;;;;8.02;5.50;;;10.80;81.50;;;;;;5058849;28;20025;-58
2022/11/04 03:00:03;;;;;;;6.65;4.80;;;10.80;81.50;;;;;;5051396;28;20416;-58
2022/11/04 03:02:38;;;;;;;8.70;4.95;;;10.80;81.60;;;;;;5055656;28;20035;-58
2022/11/04 03:05:07;;;;;;;7.70;5.10;;;10.80;81.60;;;;;;5054392;28;20497;-57
2022/11/04 03:07:36;;;;;;;6.95;4.78;;;10.90;81.60;;;;;;5056520;28;20045;-57
2022/11/04 03:10:16;;;;;;;8.38;5.28;;;10.90;81.50;;;;;;5054796;28;20028;-59
2022/11/04 03:13:07;;;;;;;6.82;4.90;;;10.90;81.30;;;;;;5046960;28;20448;-59
2022/11/04 03:15:37;;;;;;;5.68;4.47;;;11.00;81.20;;;;;;5060338;28;20064;-58
2022/11/04 03:18:05;;;;;;;7.22;4.72;;;11.00;81.20;;;;;;5051311;28;20078;-56
2022/11/04 03:20:31;;;;;;;7.35;5.32;;;10.90;81.10;;;;;;5052377;28;20028;-58
2022/11/04 03:22:59;;;;;;;7.45;5.30;;;11.00;81.10;;;;;;5051287;28;20083;-58
2022/11/04 03:25:36;;;;;;;7.38;5.18;;;11.00;81.00;;;;;;5053719;28;20400;-58
2022/11/04 03:28:46;;;;;;;6.13;4.57;;;11.00;81.00;;;;;;5053256;28;20055;-59
2022/11/04 03:31:24;;;;;;;8.48;5.10;;;11.00;81.00;;;;;;5052499;28;20388;-58
2022/11/04 03:33:51;;;;;;;6.60;4.57;;;11.00;81.10;;;;;;5061558;28;20021;-58
2022/11/04 03:36:19;;;;;;;7.32;5.47;;;11.00;81.10;;;;;;5055575;28;20094;-57
2022/11/04 03:38:45;;;;;;;7.53;4.88;;;11.00;81.10;;;;;;5048125;28;20029;-57
2022/11/04 03:41:21;;;;;;;7.68;4.90;;;11.10;81.00;;;;;;5047582;28;20036;-58
2022/11/04 03:43:47;;;;;;;8.02;5.60;;;11.00;80.80;;;;;;5058001;28;20024;-57
2022/11/04 03:46:13;;;;;;;7.80;5.38;;;11.10;80.80;;;;;;5051960;28;20396;-58
2022/11/04 03:48:40;;;;;;;7.90;5.80;;;11.10;80.80;;;;;;5052084;28;20099;-58
2022/11/04 03:51:08;;;;;;;6.88;4.78;;;11.00;80.80;;;;;;5053632;28;20086;-58
2022/11/04 03:53:33;;;;;;;8.25;5.50;;;11.00;81.00;;;;;;5052016;28;20017;-58
2022/11/04 03:56:22;;;;;;;8.00;5.35;;;11.00;81.10;;;;;;5054432;28;20468;-58
2022/11/04 03:59:05;;;;;;;6.72;5.28;;;11.00;81.00;;;;;;5052595;28;20029;-57
2022/11/04 04:01:40;;;;;;;8.30;5.45;;;11.00;81.10;;;;;;5049138;28;20048;-58
2022/11/04 04:04:41;;;;;;;6.80;5.47;;;11.10;81.10;;;;;;5050517;28;20033;-57
2022/11/04 04:07:16;;;;;;;8.60;5.90;;;11.00;80.90;;;;;;5045752;28;20079;-59
2022/11/04 04:09:54;;;;;;;7.13;5.70;;;11.00;80.90;;;;;;5052262;28;20029;-58
2022/11/04 04:12:35;;;;;;;6.72;5.10;;;11.00;80.90;;;;;;5055489;28;20035;-58
2022/11/04 04:15:10;;;;;;;8.27;6.00;;;11.00;80.90;;;;;;5053867;28;20028;-58
2022/11/04 04:17:49;;;;;;;7.35;5.55;;;11.00;80.90;;;;;;5052335;28;20056;-58
2022/11/04 04:20:19;;;;;;;7.03;5.30;;;11.00;80.80;;;;;;5053203;28;20045;-58
2022/11/04 04:22:54;;;;;;;7.03;5.15;;;11.00;80.90;;;;;;5054301;28;20010;-58
2022/11/04 04:28:12;;;;;;;9.55;5.30;;;11.00;81.10;;;;;;5046497;28;20044;-58
2022/11/04 04:30:40;;;;;;;6.43;4.63;;;11.00;81.00;;;;;;5047659;28;20056;-59
2022/11/04 04:33:10;;;;;;;7.45;4.90;;;11.00;80.90;;;;;;5051901;28;20533;-57
2022/11/04 04:35:56;;;;;;;7.88;4.38;;;11.00;80.90;;;;;;5063314;28;20040;-58
2022/11/04 04:47:10;;;;;;;6.90;4.82;;;11.10;80.80;;;;;;5041380;28;20083;-57
2022/11/04 04:49:35;;;;;;;8.93;5.57;;;11.10;80.70;;;;;;5033512;28;20476;-58
2022/11/04 04:52:03;;;;;;;8.23;5.88;;;11.10;80.60;;;;;;5050673;28;20025;-58
2022/11/04 04:54:28;;;;;;;7.05;5.32;;;11.10;80.40;;;;;;5055568;28;20140;-57
2022/11/04 04:56:54;;;;;;;6.68;5.40;;;11.10;80.20;;;;;;5053295;28;20519;-57
2022/11/04 04:59:20;;;;;;;9.32;5.82;;;11.20;80.20;;;;;;5044250;28;20033;-58
2022/11/04 05:01:45;;;;;;;8.85;6.70;;;11.20;80.10;;;;;;5052997;28;20443;-57
2022/11/04 05:04:11;;;;;;;8.48;5.97;;;11.20;80.00;;;;;;5054827;28;20108;-58
2022/11/04 05:06:37;;;;;;;8.68;5.43;;;11.20;79.80;;;;;;5049792;28;20028;-57
2022/11/04 05:09:03;;;;;;;10.43;6.22;;;11.20;79.80;;;;;;5052009;28;20053;-58
2022/11/04 05:11:29;;;;;;;8.88;6.07;;;11.20;79.90;;;;;;5038834;28;20108;-59
2022/11/04 05:13:54;;;;;;;9.20;6.32;;;11.20;80.00;;;;;;5055627;28;20615;-57
2022/11/04 05:16:20;;;;;;;8.15;5.88;;;11.20;80.00;;;;;;5052625;28;20021;-58
2022/11/04 05:18:46;;;;;;;9.30;6.03;;;11.20;80.20;;;;;;5049582;28;20037;-58
2022/11/04 05:21:14;;;;;;;8.48;5.80;;;11.20;80.20;;;;;;5042036;28;20025;-57
2022/11/04 05:23:39;;;;;;;8.38;6.55;;;11.20;80.20;;;;;;5052193;28;20040;-57
2022/11/04 05:26:05;;;;;;;9.02;6.28;;;11.10;80.30;;;;;;5057696;28;20037;-58
2022/11/04 05:28:31;;;;;;;9.80;6.22;;;11.20;80.60;;;;;;5051016;28;20025;-58
2022/11/04 05:30:56;;;;;;;7.95;5.88;;;11.20;80.70;;;;;;5050311;28;20040;-58
2022/11/04 05:33:22;;;;;;;8.63;6.35;;;11.20;80.70;;;;;;5050022;28;20029;-57
2022/11/04 05:35:48;;;;;;;10.52;6.43;;;11.20;80.70;;;;;;5060253;28;20024;-58
2022/11/04 05:38:13;;;;;;;9.20;6.10;;;11.20;80.70;;;;;;5061692;28;20083;-58
2022/11/04 05:40:39;;;;;;;7.75;5.70;;;11.20;80.70;;;;;;5051783;28;20029;-57
2022/11/04 05:43:05;;;;;;;7.75;5.60;;;11.20;80.70;;;;;;5051573;28;20044;-58
2022/11/04 05:45:31;;;;;;;7.57;5.80;;;11.30;80.50;;;;;;5057835;28;20472;-56
2022/11/04 05:47:58;;;;;;;8.13;6.05;;;11.30;80.40;;;;;;5054553;28;20100;-57
2022/11/04 05:50:23;;;;;;;9.52;6.18;;;11.40;80.40;;;;;;5052053;28;20063;-58
2022/11/04 05:52:49;;;;;;;9.40;6.93;;;11.40;80.30;;;;;;5050222;28;20029;-57
2022/11/04 05:55:15;;;;;;;8.13;6.22;;;11.40;80.20;;;;;;5054450;28;20540;-58
2022/11/04 05:57:40;;;;;;;8.32;6.28;;;11.50;80.20;;;;;;5048323;28;20039;-58
2022/11/04 06:00:07;;;;;;;8.65;6.28;;;11.60;80.20;;;;;;5052174;28;20036;-57
2022/11/04 06:02:32;;;;;;;9.27;6.63;;;11.60;80.20;;;;;;5048099;28;20031;-57
2022/11/04 06:04:58;;;;;;;8.07;6.25;;;11.70;80.30;;;;;;5053749;28;20025;-58
2022/11/04 06:07:23;;;;;;;10.43;7.57;;;11.70;80.30;;;;;;5046544;28;20053;-58
2022/11/04 06:09:49;;;;;;;9.57;6.03;;;11.70;80.30;;;;;;5049954;28;20071;-58
2022/11/04 06:12:15;;;;;;;9.23;6.53;;;11.80;80.30;;;;;;5050542;28;20037;-59
2022/11/04 06:14:42;;;;;;;8.93;6.40;;;11.80;80.10;;;;;;5054673;28;20388;-58
2022/11/04 06:17:16;;;;;;;8.90;6.43;;;11.90;80.20;;;;;;5045745;28;20028;-57
2022/11/04 06:19:42;;;;;;;8.60;6.35;;;11.90;80.10;;;;;;5046984;28;20032;-57
2022/11/04 06:22:11;;;;;;;10.55;7.50;;;11.90;80.00;;;;;;5053434;28;20120;-58
2022/11/04 06:24:36;;;;;;;9.27;7.70;;;12.00;80.00;;;;;;5045342;28;20029;-57
2022/11/04 06:27:02;;;;;;;11.80;7.88;;;12.00;79.90;;;;;;5049588;28;20029;-58
2022/11/04 06:29:28;;;;;;;11.77;8.40;;;12.10;79.90;;;;;;5048843;28;20024;-58
2022/11/04 06:31:53;;;;;;;15.93;10.85;;;12.10;79.80;;;;;;5051269;28;20029;-58
2022/11/04 06:34:19;;;;;;;10.95;8.45;;;12.20;79.50;;;;;;5051004;28;20438;-58
2022/11/04 06:36:45;;;;;;;12.18;9.25;;;12.20;79.40;;;;;;5050372;28;20074;-59
2022/11/04 06:39:11;;;;;;;11.82;8.63;;;12.20;79.20;;;;;;5045276;28;20162;-57
2022/11/04 06:41:36;;;;;;;12.02;9.13;;;12.20;79.20;;;;;;5049247;28;20028;-59
2022/11/04 06:44:02;;;;;;;12.55;9.30;;;12.20;79.20;;;;;;5047468;28;20025;-58
2022/11/04 06:46:37;;;;;;;11.48;8.35;;;12.10;79.20;;;;;;5046894;28;20036;-60
2022/11/04 06:49:05;;;;;;;11.13;7.97;;;12.10;79.40;;;;;;5044682;28;20116;-58
2022/11/04 06:51:31;;;;;;;11.10;7.57;;;12.10;79.60;;;;;;5046242;28;20384;-59
2022/11/04 06:53:57;;;;;;;10.20;7.57;;;12.10;80.50;;;;;;5050321;28;20017;-58
2022/11/04 06:56:23;;;;;;;9.95;7.03;;;12.00;79.80;;;;;;5051697;28;20033;-57
2022/11/04 06:58:50;;;;;;;11.50;7.63;;;12.00;80.00;;;;;;5045037;28;20175;-58
2022/11/04 07:01:16;;;;;;;9.10;6.80;;;12.00;80.20;;;;;;5044585;28;20037;-57
2022/11/04 07:03:42;;;;;;;9.25;6.70;;;12.00;80.20;;;;;;5038568;28;20461;-57
2022/11/04 07:06:09;;;;;;;8.98;6.50;;;12.00;80.30;;;;;;5053434;28;20143;-58
2022/11/04 07:08:35;;;;;;;9.35;6.63;;;12.00;80.20;;;;;;5045728;28;20080;-57
2022/11/04 07:11:02;;;;;;;7.63;5.78;;;12.00;80.10;;;;;;5044665;28;20063;-58
2022/11/04 07:13:28;;;;;;;8.25;6.10;;;12.00;80.30;;;;;;5047781;28;20032;-58
2022/11/04 07:15:53;;;;;;;9.25;5.97;;;12.10;80.30;;;;;;5049393;28;20025;-59
2022/11/04 07:18:19;;;;;;;8.90;5.82;;;12.00;80.30;;;;;;5050459;28;20082;-58
2022/11/04 07:20:45;;;;;;;10.23;6.53;;;12.10;80.50;;;;;;5046869;28;20040;-60
2022/11/04 07:23:11;;;;;;;9.35;6.45;;;12.10;80.60;;;;;;5048489;28;20103;-58
2022/11/04 07:25:37;;;;;;;9.07;6.25;;;12.20;80.70;;;;;;5038186;28;20115;-59
2022/11/04 07:28:03;;;;;;;8.57;6.50;;;12.20;80.60;;;;;;5040900;28;20117;-60
2022/11/04 07:30:28;;;;;;;11.57;7.28;;;12.30;80.60;;;;;;5043278;28;20016;-58
2022/11/04 07:32:54;;;;;;;9.50;5.95;;;12.30;80.50;;;;;;5045635;28;20107;-59
2022/11/04 07:35:20;;;;;;;9.73;6.50;;;12.40;80.50;;;;;;5039920;28;20577;-58
2022/11/04 07:37:45;;;;;;;9.45;6.65;;;12.50;80.40;;;;;;5042269;28;20036;-58
2022/11/04 07:40:11;;;;;;;10.85;6.47;;;12.50;80.50;;;;;;5037548;28;20124;-58
2022/11/04 07:42:37;;;;;;;10.23;6.60;;;12.60;80.50;;;;;;5039378;28;20017;-59
2022/11/04 07:45:03;;;;;;;9.30;6.63;;;12.60;80.30;;;;;;5042215;28;20128;-58
2022/11/04 07:47:29;;;;;;;9.43;6.45;;;12.50;80.40;;;;;;5039526;28;20072;-59
2022/11/04 07:49:55;;;;;;;10.48;6.95;;;12.50;80.60;;;;;;5033518;28;20024;-58
2022/11/04 07:52:21;;;;;;;9.32;6.32;;;12.50;80.60;;;;;;5043319;28;20028;-59
2022/11/04 07:54:46;;;;;;;11.10;7.15;;;12.40;80.70;;;;;;5035772;28;20043;-58
2022/11/04 07:57:12;;;;;;;8.88;5.93;;;12.40;80.60;;;;;;5038288;28;20053;-58
2022/11/04 07:59:37;;;;;;;10.77;6.10;;;12.40;80.80;;;;;;5033053;28;20079;-59
2022/11/04 08:02:04;;;;;;;10.95;6.97;;;12.40;80.80;;;;;;5032595;28;20029;-59
2022/11/04 08:04:29;;;;;;;9.45;6.25;;;12.50;80.90;;;;;;5037598;28;21210;-58
2022/11/04 08:06:55;;;;;;;10.88;6.60;;;12.40;80.80;;;;;;5031208;28;20127;-57
2022/11/04 08:09:22;;;;;;;8.82;6.25;;;12.50;81.10;;;;;;5030634;28;20024;-60
2022/11/04 08:11:48;;;;;;;7.70;5.63;;;12.40;81.00;;;;;;5030023;28;20030;-58
2022/11/04 08:14:13;;;;;;;7.60;5.80;;;12.40;81.10;;;;;;5030828;28;20765;-59
2022/11/04 08:16:39;;;;;;;7.50;5.70;;;12.40;81.20;;;;;;5029770;28;20114;-60
2022/11/04 08:19:05;;;;;;;8.50;6.50;;;12.40;81.40;;;;;;5031993;28;20024;-59
2022/11/04 08:21:32;;;;;;;8.63;5.82;;;12.40;81.50;;;;;;5031287;28;20467;-58
2022/11/04 08:23:58;;;;;;;10.25;6.50;;;12.50;81.60;;;;;;5036710;28;21446;-58
2022/11/04 08:26:23;;;;;;;9.00;6.15;;;12.50;81.50;;;;;;5035510;28;20120;-59
2022/11/04 08:28:50;;;;;;;11.18;7.28;;;12.60;81.60;;;;;;5032430;28;20512;-60
2022/11/04 08:31:27;;;;;;;8.13;5.63;;;12.60;81.70;;;;;;5031272;28;20053;-57
2022/11/04 08:33:54;;;;;;;10.35;6.22;;;12.70;81.70;;;;;;5030929;28;20388;-59
2022/11/04 08:36:23;;;;;;;9.15;6.45;;;12.80;81.60;;;;;;5030672;28;21672;-58
2022/11/04 08:38:49;;;;;;;9.18;6.35;;;12.80;81.70;;;;;;5029540;28;20519;-59
2022/11/04 08:41:18;;;;;;;8.57;6.43;;;12.90;81.80;;;;;;5034091;28;21376;-60
2022/11/04 08:43:44;;;;;;;9.13;5.63;;;12.90;81.70;;;;;;5032477;28;20674;-59
2022/11/04 08:46:11;;;;;;;9.60;6.30;;;13.00;81.90;;;;;;5032650;28;20037;-58
2022/11/04 08:48:38;;;;;;;11.00;6.72;;;13.00;81.90;;;;;;5026980;28;20133;-58
2022/11/04 08:51:09;;;;;;;7.82;5.53;;;13.10;81.90;;;;;;5028017;28;20573;-58
2022/11/04 08:53:35;;;;;;;9.00;5.88;;;13.20;81.70;;;;;;5030080;28;20025;-59
2022/11/04 08:56:09;;;;;;;8.85;5.78;;;13.30;81.80;;;;;;5032757;28;20036;-59
2022/11/04 08:58:35;;;;;;;9.52;5.88;;;13.40;81.80;;;;;;5023969;28;20036;-59
2022/11/04 09:01:03;;;;;;;9.80;6.93;;;13.40;81.60;;;;;;5025571;28;20025;-59
2022/11/04 09:03:29;;;;;;;8.90;5.90;;;13.50;81.60;;;;;;5030095;28;20120;-60
2022/11/04 09:05:56;;;;;;;9.20;6.22;;;13.50;81.50;;;;;;5027481;28;20251;-59
2022/11/04 09:08:22;;;;;;;9.20;5.97;;;13.60;81.50;;;;;;5026045;28;20050;-60
2022/11/04 09:10:47;;;;;;;8.38;5.63;;;13.60;81.30;;;;;;5034921;28;20454;-59
2022/11/04 09:13:15;;;;;;;10.00;5.95;;;13.60;81.10;;;;;;5038825;28;20102;-60
2022/11/04 09:15:41;;;;;;;10.32;5.93;;;13.60;81.10;;;;;;5022207;28;20024;-58
2022/11/04 09:18:07;;;;;;;9.15;5.22;;;13.60;81.00;;;;;;5022856;28;20040;-58
2022/11/04 09:20:33;;;;;;;9.80;5.75;;;13.60;80.90;;;;;;5025772;28;20036;-58
2022/11/04 09:22:59;;;;;;;8.23;5.50;;;13.60;80.90;;;;;;5031904;28;20093;-58
2022/11/04 09:25:25;;;;;;;8.88;5.90;;;13.60;81.10;;;;;;5031651;28;20029;-58
2022/11/04 09:27:50;;;;;;;8.93;6.25;;;13.60;81.10;;;;;;5037934;28;20083;-59
2022/11/04 09:30:16;;;;;;;9.75;6.75;;;13.60;81.10;;;;;;5023444;28;20052;-58
2022/11/04 09:32:42;;;;;;;13.80;9.90;;;13.50;81.00;;;;;;5029719;28;20052;-60
2022/11/04 09:35:08;;;;;;;13.52;9.85;;;13.60;81.10;;;;;;5031960;28;20044;-60
2022/11/04 09:37:34;;;;;;;12.52;9.07;;;13.40;81.10;;;;;;5020244;28;20088;-58
2022/11/04 09:39:59;;;;;;;12.20;8.57;;;13.40;81.40;;;;;;5026693;28;20021;-58
2022/11/04 09:42:47;;;;;;;11.70;7.93;;;13.30;81.50;;;;;;5031186;28;20120;-58
2022/11/04 09:45:17;;;;;;;11.45;8.60;;;13.30;81.70;;;;;;5022543;28;20029;-60
2022/11/04 09:47:47;;;;;;;12.38;8.35;;;13.20;82.00;;;;;;5021535;28;20037;-59
2022/11/04 09:50:28;;;;;;;12.95;9.10;;;13.20;82.00;;;;;;5024585;28;20021;-58
2022/11/04 09:53:20;;;;;;;;;;;13.20;82.00;;;;;;5026321;28;20951;-58
2022/11/04 09:56:00;;;;;;;13.05;7.35;;;13.10;82.00;;;;;;5011500;28;19927;-59
2022/11/04 09:58:31;;;;;;;11.35;7.03;;;13.10;82.00;;;;;;5023284;28;20041;-60
2022/11/04 10:01:05;;;;;;;10.55;7.88;;;13.00;82.10;;;;;;5018903;28;20045;-59
2022/11/04 10:03:39;;;;;;;7.80;5.95;;;13.00;82.30;;;;;;5017824;28;20036;-58
2022/11/04 12:22:58;;;;;;;5.78;4.32;;;12.30;82.40;;;;;;5022942;28;20441;-57
2022/11/04 12:26:01;;;;;;;9.43;5.80;;;12.30;81.40;;;;;;5020608;28;20092;-57
2022/11/04 12:28:45;;;;;;;7.57;5.22;;;12.30;82.70;;;;;;5005134;28;20048;-58
2022/11/04 12:31:31;;;;;;;6.60;4.95;;;12.40;84.10;;;;;;5020045;28;20096;-60
2022/11/04 12:34:23;;;;;;;7.85;6.00;;;12.50;85.00;;;;;;5026900;28;20063;-58
2022/11/04 12:37:14;;;;;;;8.40;5.65;;;12.60;85.50;;;;;;5023063;28;20048;-59
2022/11/04 12:39:54;;;;;;;8.43;5.50;;;12.70;85.40;;;;;;5014369;28;20034;-58
2022/11/04 12:42:56;;;;;;;6.97;5.05;;;12.80;85.30;;;;;;5019380;28;20164;-59
2022/11/04 12:45:24;;;;;;;;;;;12.90;85.00;;;;;;5019222;28;20030;-59
2022/11/04 12:47:55;;;;;;;6.25;5.00;;;12.90;84.50;;;;;;5023930;28;19916;-58
2022/11/04 12:50:34;;;;;;;5.90;4.10;;;12.90;85.00;;;;;;5023780;28;20034;-58
2022/11/04 12:53:25;;;;;;;7.20;5.10;;;13.00;84.80;;;;;;5019289;28;20037;-58
2022/11/04 12:56:10;;;;;;;7.68;6.25;;;13.00;84.80;;;;;;5019723;28;20025;-59
2022/11/04 12:59:13;;;;;;;9.30;6.28;;;13.00;84.50;;;;;;5022894;28;20039;-59
2022/11/04 13:01:48;;;;;;;7.38;5.93;;;13.00;84.20;;;;;;5032537;28;20036;-58
2022/11/04 13:04:22;;;;;;;6.47;5.03;;;13.00;84.40;;;;;;5025720;28;20017;-59
2022/11/04 13:07:02;;;;;;;9.60;6.20;;;13.00;84.30;;;;;;5026816;28;20029;-59
2022/11/04 13:09:31;;;;;;;7.33;5.70;;;13.10;84.20;;;;;;5020989;28;20124;-59
2022/11/04 13:12:10;;;;;;;7.63;6.00;;;13.10;84.30;;;;;;5022636;28;20040;-58
2022/11/04 13:15:01;;;;;;;7.65;5.97;;;13.10;84.10;;;;;;5023590;28;20350;-59
2022/11/04 13:17:34;;;;;;;8.43;5.80;;;13.10;83.90;;;;;;5025599;28;20155;-59
2022/11/04 13:20:13;;;;;;;8.13;5.88;;;13.10;83.80;;;;;;5018964;28;20061;-59
2022/11/04 13:22:43;;;;;;;6.60;5.20;;;13.20;83.60;;;;;;5025428;28;20041;-58
2022/11/04 13:25:29;;;;;;;7.70;5.63;;;13.10;83.70;;;;;;5014041;28;20107;-58
2022/11/04 13:27:55;;;;;;;8.10;5.70;;;13.20;83.50;;;;;;5026750;28;21662;-60
2022/11/04 13:30:30;;;;;;;8.18;6.05;;;13.10;83.40;;;;;;5013908;28;20025;-59
2022/11/04 13:33:01;;;;;;;8.45;6.40;;;13.20;83.30;;;;;;5005776;28;20045;-59
2022/11/04 13:35:46;;;;;;;;;;;13.10;83.30;;;;;;5005785;28;20108;-59
2022/11/04 13:38:15;;;;;;;10.00;7.28;;;13.10;83.10;;;;;;5004555;28;20501;-58
2022/11/04 13:40:52;;;;;;;11.45;7.45;;;13.10;83.20;;;;;;5006657;28;20036;-59
2022/11/04 13:43:38;;;;;;;9.60;6.75;;;13.10;83.20;;;;;;5010145;28;20049;-59
2022/11/04 13:46:09;;;;;;;10.93;7.28;;;13.00;83.20;;;;;;5001477;28;20799;-59
2022/11/04 13:48:50;;;;;;;8.80;5.63;;;13.00;83.30;;;;;;5001493;28;20025;-58
2022/11/04 13:51:18;;;;;;;8.55;5.72;;;13.00;83.10;;;;;;5001668;28;21581;-57
2022/11/04 13:53:50;;;;;;;9.07;6.30;;;13.00;83.10;;;;;;4992719;28;20080;-59
2022/11/04 13:56:37;;;;;;;8.75;5.70;;;13.10;83.00;;;;;;5004030;28;20056;-59
2022/11/04 13:59:24;;;;;;;7.95;5.65;;;13.10;83.40;;;;;;5001016;28;20033;-58
2022/11/04 14:02:10;;;;;;;7.88;5.07;;;13.10;82.50;;;;;;5004346;28;20396;-58
2022/11/04 14:04:40;;;;;;;7.40;5.20;;;13.10;82.30;;;;;;4990297;28;20140;-59
2022/11/04 14:07:09;;;;;;;8.40;5.47;;;13.10;82.20;;;;;;5004056;28;20045;-59
2022/11/04 14:09:41;;;;;;;8.48;5.55;;;13.10;82.10;;;;;;5003427;28;21050;-56
2022/11/04 14:12:10;;;;;;;8.43;5.50;;;13.10;82.00;;;;;;4996024;28;20037;-59
2022/11/04 14:15:10;;;;;;;9.63;5.28;;;13.10;81.90;;;;;;5007426;28;20699;-58
2022/11/04 14:17:35;;;;;;;8.27;5.60;;;13.10;81.80;;;;;;4990128;28;20076;-59
2022/11/04 14:20:04;;;;;;;8.27;5.88;;;13.00;81.90;;;;;;4998767;28;20500;-58
2022/11/04 14:22:53;;;;;;;8.10;5.47;;;13.00;81.70;;;;;;4998594;28;20148;-60
2022/11/04 14:25:36;;;;;;;9.27;6.20;;;13.00;81.60;;;;;;5009997;28;20136;-57
2022/11/04 14:28:17;;;;;;;7.75;5.40;;;13.00;81.60;;;;;;5008395;28;20029;-59
2022/11/04 14:31:01;;;;;;;8.10;5.20;;;12.90;82.00;;;;;;5001148;28;20026;-59
2022/11/04 14:33:32;;;;;;;7.82;5.40;;;12.90;81.40;;;;;;5002854;28;20087;-60
2022/11/04 14:36:19;;;;;;;8.48;5.80;;;12.80;81.30;;;;;;5001635;28;20033;-60
2022/11/04 14:39:06;;;;;;;8.77;6.07;;;12.80;81.30;;;;;;5008822;28;20080;-60
2022/11/04 14:41:38;;;;;;;8.88;5.57;;;12.80;81.40;;;;;;4993594;28;20679;-60
2022/11/04 14:44:07;;;;;;;9.20;5.90;;;12.70;81.40;;;;;;5004406;28;20033;-59
2022/11/04 14:46:40;;;;;;;7.80;5.93;;;12.70;81.90;;;;;;5010148;28;20029;-58
2022/11/04 14:49:05;;;;;;;8.20;5.90;;;12.70;81.70;;;;;;5015474;28;20144;-58
2022/11/04 14:51:39;;;;;;;7.78;5.82;;;12.70;81.60;;;;;;5002816;28;20754;-58
2022/11/04 14:54:20;;;;;;;8.00;5.57;;;12.70;81.70;;;;;;5007454;28;20029;-58
2022/11/04 14:56:45;;;;;;;8.93;5.10;;;12.70;81.60;;;;;;4997266;28;20073;-59
2022/11/04 14:59:21;;;;;;;8.60;5.72;;;12.70;81.80;;;;;;5004488;28;20140;-59
2022/11/04 15:01:50;;;;;;;9.38;5.85;;;12.70;81.70;;;;;;5004318;28;20875;-59
2022/11/04 15:04:25;;;;;;;8.82;5.68;;;12.70;81.60;;;;;;5009340;28;20112;-59
2022/11/04 15:06:59;;;;;;;9.10;5.90;;;12.70;81.60;;;;;;5010268;28;20025;-58
2022/11/04 15:09:38;;;;;;;6.75;4.97;;;12.70;81.50;;;;;;5015163;28;20049;-58
2022/11/04 15:15:18;;;;;;;8.65;5.93;;;12.70;81.30;;;;;;5009883;28;21792;-59
2022/11/04 15:17:44;;;;;;;8.65;5.60;;;12.70;81.20;;;;;;5002097;28;20037;-58
2022/11/04 15:20:22;;;;;;;9.10;5.78;;;12.60;81.80;;;;;;4998688;28;20033;-60
2022/11/04 15:22:48;;;;;;;8.75;6.15;;;12.60;81.30;;;;;;5007859;28;20192;-59
2022/11/04 15:25:14;;;;;;;9.25;6.18;;;12.60;81.10;;;;;;5005060;28;20032;-59
2022/11/04 15:27:40;;;;;;;9.60;6.53;;;12.60;81.10;;;;;;5011079;28;20045;-58
2022/11/04 15:30:25;;;;;;;11.15;6.97;;;12.50;81.00;;;;;;5007679;28;20033;-59
2022/11/04 15:32:59;;;;;;;11.13;6.88;;;12.50;81.00;;;;;;5015027;28;20105;-59
2022/11/04 15:35:27;;;;;;;12.23;7.68;;;12.50;81.00;;;;;;5006704;28;20033;-59
2022/11/04 15:37:55;;;;;;;9.55;6.50;;;12.40;81.10;;;;;;5003620;28;20044;-59
2022/11/04 15:40:21;;;;;;;11.52;7.47;;;12.40;81.20;;;;;;5005946;28;20025;-57
2022/11/04 15:42:48;;;;;;;11.40;8.23;;;12.40;81.20;;;;;;5004742;28;20034;-58
2022/11/04 15:45:16;;;;;;;10.32;7.10;;;12.40;81.20;;;;;;5012714;28;20044;-58
2022/11/04 15:47:42;;;;;;;8.88;6.40;;;12.30;81.00;;;;;;5013459;28;20030;-58
2022/11/04 15:50:24;;;;;;;9.73;6.88;;;12.30;81.00;;;;;;5012292;28;20033;-58
2022/11/04 15:52:53;;;;;;;12.52;8.27;;;12.30;81.10;;;;;;5016901;28;20064;-59
2022/11/04 15:55:22;;;;;;;9.80;6.80;;;12.30;81.10;;;;;;5010556;28;20041;-59